createdAt,value
2022-10-06T00:01:18.094Z,2.70
2022-10-06T00:04:20.602Z,2.60
2022-10-06T00:07:24.382Z,2.70
2022-10-06T00:10:27.910Z,2.70
2022-10-06T00:13:30.616Z,2.42
2022-10-06T00:16:33.090Z,2.60
2022-10-06T00:19:35.615Z,3.17
2022-10-06T00:22:41.902Z,2.58
2022-10-06T00:25:44.359Z,2.38
2022-10-06T00:28:47.835Z,2.70
2022-10-06T00:31:50.443Z,2.90
2022-10-06T00:34:54.062Z,2.60
2022-10-06T00:37:57.847Z,2.50
2022-10-06T00:41:00.355Z,2.80
2022-10-06T00:44:02.843Z,2.63
2022-10-06T00:47:05.905Z,2.92
2022-10-06T00:50:11.790Z,3.15
2022-10-06T00:53:16.823Z,2.58
2022-10-06T00:56:19.346Z,2.72
2022-10-06T00:59:21.813Z,2.60
2022-10-06T01:02:31.535Z,2.72
2022-10-06T01:05:41.427Z,2.53
2022-10-06T01:08:46.725Z,2.90
2022-10-06T01:11:51.181Z,2.25
2022-10-06T01:14:53.810Z,2.90
2022-10-06T01:18:02.102Z,2.83
2022-10-06T01:21:09.546Z,2.60
2022-10-06T01:24:13.708Z,2.92
2022-10-06T01:27:17.490Z,2.88
2022-10-06T01:30:23.249Z,2.78
2022-10-06T01:33:25.733Z,3.20
2022-10-06T01:36:28.202Z,2.65
2022-10-06T01:39:32.006Z,3.00
2022-10-06T01:42:35.833Z,3.10
2022-10-06T01:45:38.413Z,2.78
2022-10-06T01:48:40.882Z,2.80
2022-10-06T01:51:43.345Z,3.28
2022-10-06T01:54:47.294Z,2.80
2022-10-06T01:57:49.754Z,2.70
2022-10-06T02:00:52.604Z,3.10
2022-10-06T02:03:55.150Z,2.78
2022-10-06T02:06:58.970Z,3.28
2022-10-06T02:10:02.875Z,2.45
2022-10-06T02:13:05.415Z,3.20
2022-10-06T02:16:09.010Z,2.53
2022-10-06T02:19:11.596Z,2.65
2022-10-06T02:22:14.079Z,2.95
2022-10-06T02:25:18.313Z,2.58
2022-10-06T02:28:20.797Z,2.50
2022-10-06T02:31:23.485Z,2.88
2022-10-06T02:34:26.168Z,2.90
2022-10-06T02:37:28.730Z,2.63
2022-10-06T02:40:32.726Z,2.88
2022-10-06T02:43:36.030Z,2.67
2022-10-06T02:46:38.573Z,2.97
2022-10-06T02:49:41.074Z,2.50
2022-10-06T02:52:43.539Z,2.78
2022-10-06T02:55:47.373Z,2.72
2022-10-06T02:58:51.174Z,3.05
2022-10-06T03:01:54.849Z,2.65
2022-10-06T03:04:57.325Z,2.33
2022-10-06T03:07:59.782Z,2.50
2022-10-06T03:11:06.812Z,2.70
2022-10-06T03:14:10.051Z,2.72
2022-10-06T03:17:12.551Z,2.83
2022-10-06T03:20:15.030Z,2.38
2022-10-06T03:23:17.552Z,2.55
2022-10-06T03:26:23.130Z,2.58
2022-10-06T03:29:25.559Z,2.67
2022-10-06T03:32:28.040Z,3.20
2022-10-06T03:35:30.514Z,2.85
2022-10-06T03:38:33.748Z,3.00
2022-10-06T03:41:38.921Z,2.72
2022-10-06T03:44:41.401Z,2.42
2022-10-06T03:47:43.844Z,2.38
2022-10-06T03:50:55.038Z,2.60
2022-10-06T03:53:58.089Z,2.35
2022-10-06T03:57:01.889Z,2.50
2022-10-06T04:00:06.234Z,2.42
2022-10-06T04:03:09.357Z,2.30
2022-10-06T04:06:14.294Z,2.33
2022-10-06T04:09:17.600Z,2.20
2022-10-06T04:12:21.384Z,2.03
2022-10-06T04:15:23.861Z,2.75
2022-10-06T04:18:26.994Z,2.45
2022-10-06T04:21:31.546Z,2.20
2022-10-06T04:24:34.026Z,1.73
2022-10-06T04:27:37.825Z,2.35
2022-10-06T04:30:40.291Z,1.65
2022-10-06T04:33:43.103Z,1.60
2022-10-06T04:36:46.671Z,1.65
2022-10-06T04:39:49.113Z,1.27
2022-10-06T04:42:52.894Z,1.30
2022-10-06T04:45:59.093Z,1.33
2022-10-06T04:49:01.684Z,1.00
2022-10-06T04:52:04.902Z,0.93
2022-10-06T04:55:08.050Z,0.90
2022-10-06T04:58:12.000Z,0.73
2022-10-06T05:01:16.664Z,0.68
2022-10-06T05:04:19.192Z,0.63
2022-10-06T05:07:21.730Z,0.82
2022-10-06T05:10:24.200Z,0.52
2022-10-06T05:13:28.194Z,0.43
2022-10-06T05:16:32.096Z,0.40
2022-10-06T05:19:34.600Z,0.38
2022-10-06T05:22:37.062Z,0.38
2022-10-06T05:25:39.594Z,0.30
2022-10-06T05:28:43.550Z,0.40
2022-10-06T05:31:46.769Z,0.30
2022-10-06T05:34:49.297Z,0.30
2022-10-06T05:37:51.761Z,0.30
2022-10-06T05:41:01.771Z,0.50
2022-10-06T05:44:05.831Z,0.65
2022-10-06T05:47:08.303Z,0.40
2022-10-06T05:50:10.800Z,0.50
2022-10-06T05:53:13.358Z,0.38
2022-10-06T05:56:18.122Z,0.50
2022-10-06T05:59:21.965Z,0.30
2022-10-06T06:02:24.531Z,0.40
2022-10-06T06:05:27.083Z,0.50
2022-10-06T06:08:29.774Z,0.50
2022-10-06T06:11:32.622Z,0.40
2022-10-06T06:15:02.521Z,0.30
2022-10-06T06:18:06.072Z,0.50
2022-10-06T06:21:10.698Z,0.70
2022-10-06T06:24:13.129Z,0.47
2022-10-06T06:27:15.805Z,0.50
2022-10-06T06:30:21.135Z,0.88
2022-10-06T06:33:23.586Z,0.50
2022-10-06T06:36:28.342Z,0.63
2022-10-06T06:39:30.799Z,0.60
2022-10-06T06:42:33.288Z,0.85
2022-10-06T06:45:37.068Z,0.50
2022-10-06T06:48:39.552Z,0.35
2022-10-06T06:51:44.158Z,0.60
2022-10-06T06:54:49.935Z,0.90
2022-10-06T06:57:52.592Z,0.90
2022-10-06T07:00:56.404Z,0.60
2022-10-06T07:03:59.674Z,0.65
2022-10-06T07:07:02.273Z,0.50
2022-10-06T07:10:05.163Z,0.68
2022-10-06T07:13:07.754Z,0.68
2022-10-06T07:16:31.938Z,0.85
2022-10-06T07:19:51.822Z,0.73
2022-10-06T07:23:12.290Z,0.90
2022-10-06T07:26:14.747Z,1.08
2022-10-06T07:29:17.354Z,1.10
2022-10-06T07:32:21.521Z,0.68
2022-10-06T07:35:25.219Z,0.88
2022-10-06T07:38:28.034Z,0.90
2022-10-06T07:41:30.862Z,1.10
2022-10-06T07:44:33.334Z,0.70
2022-10-06T07:47:38.291Z,0.85
2022-10-06T07:50:41.264Z,0.63
2022-10-06T07:53:46.514Z,1.13
2022-10-06T07:56:49.005Z,0.73
2022-10-06T07:59:51.605Z,0.93
2022-10-06T08:02:55.663Z,0.98
2022-10-06T08:06:00.109Z,0.77
2022-10-06T08:09:02.671Z,0.68
2022-10-06T08:12:25.956Z,0.80
2022-10-06T08:15:28.514Z,0.82
2022-10-06T08:18:46.130Z,0.80
2022-10-06T08:21:49.448Z,1.00
2022-10-06T08:25:05.649Z,0.93
2022-10-06T08:28:09.223Z,0.95
2022-10-06T08:31:13.228Z,0.77
2022-10-06T08:34:17.140Z,0.80
2022-10-06T08:37:23.884Z,1.13
2022-10-06T08:40:27.501Z,0.60
2022-10-06T08:43:33.013Z,1.15
2022-10-06T08:46:40.184Z,0.68
2022-10-06T08:49:45.937Z,0.85
2022-10-06T08:52:56.487Z,0.73
2022-10-06T08:56:04.373Z,0.90
2022-10-06T08:59:09.786Z,1.00
2022-10-06T09:02:25.874Z,0.93
2022-10-06T09:05:31.511Z,1.00
2022-10-06T09:08:48.734Z,0.77
2022-10-06T09:12:01.182Z,1.00
2022-10-06T09:15:21.033Z,0.80
2022-10-06T09:18:49.367Z,1.10
2022-10-06T09:21:55.491Z,1.05
2022-10-06T09:25:00.580Z,0.90
2022-10-06T09:28:04.089Z,1.05
2022-10-06T09:31:21.026Z,1.00
2022-10-06T09:34:29.477Z,0.93
2022-10-06T09:37:53.516Z,1.38
2022-10-06T09:40:56.366Z,0.90
2022-10-06T09:44:00.442Z,0.77
2022-10-06T09:47:02.964Z,1.05
2022-10-06T09:50:20.498Z,1.25
2022-10-06T09:53:24.554Z,0.90
2022-10-06T09:56:27.293Z,1.42
2022-10-06T09:59:39.137Z,1.02
2022-10-06T10:02:43.052Z,1.02
2022-10-06T10:05:48.989Z,1.60
2022-10-06T10:08:54.651Z,0.95
2022-10-06T10:12:33.891Z,1.52
2022-10-06T10:15:49.939Z,1.20
2022-10-06T10:18:53.109Z,1.13
2022-10-06T10:21:57.314Z,1.40
2022-10-06T10:25:10.096Z,0.95
2022-10-06T10:28:25.299Z,1.00
2022-10-06T10:31:34.540Z,1.23
2022-10-06T10:34:51.466Z,1.15
2022-10-06T10:38:00.938Z,1.08
2022-10-06T10:41:10.338Z,1.20
2022-10-06T10:44:24.249Z,1.30
2022-10-06T10:47:31.314Z,1.10
2022-10-06T10:50:49.131Z,1.70
2022-10-06T10:53:56.580Z,1.23
2022-10-06T10:57:00.489Z,1.17
2022-10-06T11:00:07.468Z,1.42
2022-10-06T11:03:11.023Z,1.02
2022-10-06T11:06:28.668Z,1.40
2022-10-06T11:09:41.350Z,1.10
2022-10-06T11:13:11.863Z,1.70
2022-10-06T11:16:29.654Z,1.08
2022-10-06T11:19:45.138Z,1.27
2022-10-06T11:22:55.967Z,1.10
2022-10-06T11:26:10.416Z,0.80
2022-10-06T11:29:25.624Z,1.05
2022-10-06T11:32:40.473Z,1.55
2022-10-06T11:35:45.803Z,1.40
2022-10-06T11:38:56.478Z,1.80
2022-10-06T11:42:04.715Z,1.17
2022-10-06T11:45:14.640Z,1.38
2022-10-06T11:48:24.477Z,1.45
2022-10-06T11:51:31.476Z,1.20
2022-10-06T11:54:48.264Z,0.80
2022-10-06T11:58:23.786Z,1.63
2022-10-06T12:01:54.084Z,0.82
2022-10-06T12:08:56.506Z,1.00
2022-10-06T12:12:00.455Z,1.10
2022-10-06T12:17:06.116Z,1.13
2022-10-06T12:18:45.982Z,1.00
2022-10-06T12:21:55.495Z,1.25
2022-10-06T12:25:06.377Z,1.33
2022-10-06T12:28:18.089Z,1.00
2022-10-06T12:31:36.106Z,1.20
2022-10-06T12:34:44.243Z,0.95
2022-10-06T12:37:53.974Z,0.90
2022-10-06T12:40:57.605Z,1.10
2022-10-06T12:44:00.723Z,1.48
2022-10-06T12:47:07.039Z,1.33
2022-10-06T12:50:18.397Z,0.88
2022-10-06T12:53:25.574Z,1.42
2022-10-06T12:56:31.871Z,0.90
2022-10-06T12:59:38.388Z,0.90
2022-10-06T13:02:45.098Z,1.20
2022-10-06T13:05:56.004Z,1.20
2022-10-06T13:09:17.527Z,1.37
2022-10-06T13:12:22.608Z,1.00
2022-10-06T13:15:29.153Z,0.93
2022-10-06T13:18:32.758Z,1.27
2022-10-06T13:21:36.828Z,1.27
2022-10-06T13:24:40.046Z,1.35
2022-10-06T13:27:49.878Z,1.10
2022-10-06T13:30:54.603Z,1.25
2022-10-06T13:34:00.794Z,1.50
2022-10-06T13:37:05.190Z,1.13
2022-10-06T13:40:21.682Z,1.40
2022-10-06T13:43:30.406Z,1.58
2022-10-06T13:46:40.489Z,0.70
2022-10-06T13:49:48.652Z,0.95
2022-10-06T13:52:52.504Z,1.13
2022-10-06T13:55:55.716Z,1.02
2022-10-06T13:58:58.261Z,1.52
2022-10-06T14:02:15.053Z,0.85
2022-10-06T14:05:30.263Z,1.02
2022-10-06T14:08:34.853Z,1.35
2022-10-06T14:11:37.362Z,1.63
2022-10-06T14:14:40.327Z,1.40
2022-10-06T14:17:42.916Z,1.30
2022-10-06T14:20:49.287Z,1.45
2022-10-06T14:23:54.348Z,1.58
2022-10-06T14:27:02.472Z,1.40
2022-10-06T14:30:05.770Z,1.30
2022-10-06T14:33:09.186Z,1.27
2022-10-06T14:36:23.700Z,1.67
2022-10-06T14:39:28.460Z,1.23
2022-10-06T14:42:31.953Z,1.13
2022-10-06T14:45:36.080Z,1.13
2022-10-06T14:48:38.838Z,1.67
2022-10-06T14:51:42.891Z,1.63
2022-10-06T14:54:47.341Z,1.40
2022-10-06T14:57:50.239Z,0.90
2022-10-06T15:00:52.771Z,1.50
2022-10-06T15:03:56.878Z,1.05
2022-10-06T15:07:16.852Z,1.40
2022-10-06T15:10:20.651Z,1.10
2022-10-06T15:13:23.095Z,1.25
2022-10-06T15:16:26.608Z,1.25
2022-10-06T15:19:29.330Z,1.10
2022-10-06T15:22:31.965Z,1.30
2022-10-06T15:25:53.780Z,1.25
2022-10-06T15:29:03.170Z,1.05
2022-10-06T15:32:06.706Z,1.25
2022-10-06T15:35:10.052Z,1.58
2022-10-06T15:38:12.509Z,0.73
2022-10-06T15:41:16.793Z,1.10
2022-10-06T15:44:20.501Z,0.82
2022-10-06T15:47:23.835Z,0.82
2022-10-06T15:50:26.290Z,1.00
2022-10-06T15:53:28.728Z,0.88
2022-10-06T15:56:32.855Z,0.98
2022-10-06T15:59:35.943Z,1.23
2022-10-06T16:02:38.474Z,1.10
2022-10-06T16:05:51.129Z,0.75
2022-10-06T16:08:53.578Z,1.30
2022-10-06T16:11:58.708Z,1.23
2022-10-06T16:15:01.181Z,1.35
2022-10-06T16:18:03.643Z,1.38
2022-10-06T16:21:06.400Z,1.20
2022-10-06T16:24:09.462Z,1.00
2022-10-06T16:27:14.882Z,1.17
2022-10-06T16:30:17.564Z,1.05
2022-10-06T16:33:20.028Z,1.00
2022-10-06T16:36:22.621Z,1.55
2022-10-06T16:39:25.510Z,1.10
2022-10-06T16:42:29.293Z,1.17
2022-10-06T16:45:31.734Z,1.23
2022-10-06T16:48:35.696Z,1.00
2022-10-06T16:51:40.071Z,1.05
2022-10-06T16:54:42.526Z,1.30
2022-10-06T16:57:46.407Z,1.02
2022-10-06T17:00:57.131Z,1.10
2022-10-06T17:04:00.409Z,1.45
2022-10-06T17:07:04.206Z,0.60
2022-10-06T17:10:20.057Z,1.42
2022-10-06T17:13:25.996Z,1.00
2022-10-06T17:16:30.320Z,1.15
2022-10-06T17:19:32.778Z,1.10
2022-10-06T17:22:35.314Z,1.02
2022-10-06T17:25:37.759Z,1.42
2022-10-06T17:28:42.096Z,1.17
2022-10-06T17:31:44.939Z,1.33
2022-10-06T17:34:47.807Z,1.33
2022-10-06T17:37:50.871Z,1.33
2022-10-06T17:40:53.326Z,0.93
2022-10-06T17:43:59.015Z,1.02
2022-10-06T17:47:01.483Z,1.25
2022-10-06T17:50:04.099Z,0.77
2022-10-06T17:53:07.010Z,0.95
2022-10-06T17:56:11.258Z,1.05
2022-10-06T17:59:17.392Z,1.40
2022-10-06T18:02:20.054Z,1.17
2022-10-06T18:05:22.568Z,1.17
2022-10-06T18:08:25.558Z,0.88
2022-10-06T18:11:39.793Z,1.38
2022-10-06T18:14:43.870Z,1.13
2022-10-06T18:17:49.030Z,1.17
2022-10-06T18:20:51.599Z,1.38
2022-10-06T18:23:55.854Z,1.15
2022-10-06T18:27:00.821Z,1.13
2022-10-06T18:30:05.451Z,1.40
2022-10-06T18:36:30.685Z,1.25
2022-10-06T18:39:33.565Z,1.65
2022-10-06T18:42:36.181Z,1.08
2022-10-06T18:45:57.665Z,1.13
2022-10-06T18:49:05.368Z,1.52
2022-10-06T18:52:07.847Z,1.42
2022-10-06T18:55:10.371Z,1.15
2022-10-06T18:58:12.997Z,1.13
2022-10-06T19:01:17.229Z,1.25
2022-10-06T19:04:21.547Z,1.73
2022-10-06T19:07:24.042Z,1.52
2022-10-06T19:10:26.509Z,1.10
2022-10-06T19:13:29.005Z,1.17
2022-10-06T19:16:32.986Z,1.15
2022-10-06T19:19:36.017Z,1.63
2022-10-06T19:22:38.958Z,1.38
2022-10-06T19:25:41.401Z,0.95
2022-10-06T19:28:43.965Z,1.08
2022-10-06T19:31:47.952Z,1.40
2022-10-06T19:34:50.513Z,1.58
2022-10-06T19:37:52.987Z,1.40
2022-10-06T19:41:15.447Z,1.30
2022-10-06T19:44:17.486Z,1.70
2022-10-06T19:47:21.377Z,1.52
2022-10-06T19:50:23.824Z,1.50
2022-10-06T19:53:26.292Z,1.52
2022-10-06T19:56:30.108Z,1.48
2022-10-06T19:59:32.593Z,1.42
2022-10-06T20:02:41.313Z,1.45
2022-10-06T20:05:44.799Z,1.77
2022-10-06T20:08:47.710Z,1.40
2022-10-06T20:11:51.706Z,1.60
2022-10-06T20:14:54.403Z,2.00
2022-10-06T20:17:58.206Z,1.48
2022-10-06T20:21:00.673Z,1.60
2022-10-06T20:24:05.617Z,1.50
2022-10-06T20:27:08.819Z,1.17
2022-10-06T20:30:12.165Z,2.28
2022-10-06T20:33:16.119Z,1.77
2022-10-06T20:36:19.502Z,1.88
2022-10-06T20:39:40.139Z,2.17
2022-10-06T20:42:45.037Z,1.75
2022-10-06T20:45:48.868Z,1.50
2022-10-06T20:48:52.727Z,1.63
2022-10-06T20:51:55.289Z,1.63
2022-10-06T20:54:57.746Z,2.22
2022-10-06T20:58:00.215Z,1.52
2022-10-06T21:01:07.469Z,1.42
2022-10-06T21:04:11.554Z,1.38
2022-10-06T21:07:14.118Z,1.77
2022-10-06T21:10:16.674Z,1.48
2022-10-06T21:13:19.199Z,1.58
2022-10-06T21:16:23.488Z,2.28
2022-10-06T21:19:29.966Z,1.48
2022-10-06T21:22:32.545Z,1.50
2022-10-06T21:25:37.767Z,1.38
2022-10-06T21:28:42.638Z,2.00
2022-10-06T21:31:46.201Z,1.83
2022-10-06T21:34:50.403Z,1.40
2022-10-06T21:37:52.979Z,1.30
2022-10-06T21:40:57.241Z,1.48
2022-10-06T21:44:01.434Z,1.15
2022-10-06T21:47:04.055Z,1.73
2022-10-06T21:50:08.878Z,1.75
2022-10-06T21:53:11.418Z,1.60
2022-10-06T21:56:14.377Z,1.90
2022-10-06T21:59:16.995Z,1.65
2022-10-06T22:02:19.529Z,1.60
2022-10-06T22:05:23.381Z,1.70
2022-10-06T22:08:25.908Z,1.40
2022-10-06T22:11:30.061Z,1.67
2022-10-06T22:14:32.613Z,2.13
2022-10-06T22:17:35.149Z,1.73
2022-10-06T22:20:39.009Z,1.42
2022-10-06T22:23:42.063Z,1.52
2022-10-06T22:26:45.258Z,1.73
2022-10-06T22:29:47.811Z,2.17
2022-10-06T22:32:50.355Z,2.28
2022-10-06T22:35:54.202Z,1.85
2022-10-06T22:38:57.523Z,1.95
2022-10-06T22:42:00.118Z,2.55
2022-10-06T22:45:02.630Z,1.77
2022-10-06T22:48:05.207Z,2.03
2022-10-06T22:51:09.285Z,1.92
2022-10-06T22:54:17.590Z,1.88
2022-10-06T22:57:20.170Z,1.85
2022-10-06T23:00:22.877Z,2.30
2022-10-06T23:03:25.836Z,2.53
2022-10-06T23:06:31.271Z,1.90
2022-10-06T23:09:36.713Z,2.03
2022-10-06T23:12:39.246Z,1.60
2022-10-06T23:15:41.766Z,2.20
2022-10-06T23:18:45.926Z,1.63
2022-10-06T23:21:49.774Z,2.10
2022-10-06T23:24:53.473Z,2.13
2022-10-06T23:27:56.113Z,1.65
2022-10-06T23:30:58.639Z,2.47
2022-10-06T23:34:01.177Z,2.22
2022-10-06T23:37:05.072Z,1.70
2022-10-06T23:40:08.554Z,2.50
2022-10-06T23:43:11.092Z,1.98
2022-10-06T23:46:13.963Z,2.92
2022-10-06T23:49:16.522Z,2.40
2022-10-06T23:52:20.383Z,2.08
2022-10-06T23:55:22.895Z,2.58
2022-10-06T23:58:25.808Z,2.72
